createdAt,value
2018-04-12T00:01:42.450Z,20.37
2018-04-12T00:04:12.741Z,21.40
2018-04-12T00:06:43.021Z,19.33
2018-04-12T00:09:13.046Z,20.73
2018-04-12T00:11:43.029Z,20.70
2018-04-12T00:14:13.014Z,20.37
2018-04-12T00:16:42.978Z,21.70
2018-04-12T00:19:12.977Z,23.73
2018-04-12T00:21:49.270Z,21.70
2018-04-12T00:24:19.265Z,23.17
2018-04-12T00:26:49.228Z,21.37
2018-04-12T00:29:19.168Z,21.23
2018-04-12T00:31:51.637Z,21.77
2018-04-12T00:34:21.641Z,20.67
2018-04-12T00:36:51.637Z,22.40
2018-04-12T00:39:21.661Z,22.40
2018-04-12T00:41:59.473Z,21.83
2018-04-12T00:44:30.232Z,23.73
2018-04-12T00:47:00.245Z,21.27
2018-04-12T00:49:30.216Z,21.70
2018-04-12T00:52:05.317Z,24.53
2018-04-12T00:54:35.509Z,23.30
2018-04-12T00:57:05.530Z,23.40
2018-04-12T00:59:41.578Z,22.90
2018-04-12T01:02:12.333Z,23.57
2018-04-12T01:04:42.713Z,22.87
2018-04-12T01:07:12.703Z,23.47
2018-04-12T01:09:42.699Z,26.70
2018-04-12T01:12:12.761Z,24.17
2018-04-12T01:14:42.764Z,24.00
2018-04-12T01:17:17.381Z,23.00
2018-04-12T01:19:47.367Z,23.73
2018-04-12T01:22:17.425Z,23.10
2018-04-12T01:24:53.385Z,25.50
2018-04-12T01:27:23.417Z,24.60
2018-04-12T01:29:53.382Z,23.80
2018-04-12T01:32:23.373Z,25.30
2018-04-12T01:35:08.298Z,25.67
2018-04-12T01:37:39.226Z,24.87
2018-04-12T01:40:09.217Z,24.50
2018-04-12T01:42:39.212Z,25.43
2018-04-12T01:45:09.274Z,25.13
2018-04-12T01:47:39.261Z,25.67
2018-04-12T01:53:09.423Z,25.93
2018-04-12T01:55:40.091Z,23.50
2018-04-12T01:58:10.081Z,26.00
2018-04-12T02:00:51.593Z,26.27
2018-04-12T02:03:21.528Z,26.20
2018-04-12T02:05:51.637Z,25.80
2018-04-12T02:08:22.394Z,28.13
2018-04-12T02:10:52.468Z,26.20
2018-04-12T02:13:22.560Z,27.23
2018-04-12T02:15:53.207Z,27.27
2018-04-12T02:18:23.167Z,28.43
2018-04-12T02:20:53.174Z,24.77
2018-04-12T02:23:37.895Z,26.30
2018-04-12T02:26:07.924Z,26.57
2018-04-12T02:28:37.856Z,26.10
2018-04-12T02:31:08.795Z,26.10
2018-04-12T02:33:46.741Z,26.03
2018-04-12T02:36:16.739Z,27.10
2018-04-12T02:38:47.356Z,26.03
2018-04-12T02:41:17.327Z,24.27
2018-04-12T02:43:48.426Z,24.67
2018-04-12T02:46:18.606Z,26.10
2018-04-12T02:48:48.517Z,27.23
2018-04-12T02:51:19.543Z,26.70
2018-04-12T02:53:49.506Z,27.33
2018-04-12T02:56:19.818Z,24.90
2018-04-12T02:58:49.811Z,25.47
2018-04-12T03:01:19.888Z,24.87
2018-04-12T03:03:49.911Z,25.77
2018-04-12T03:06:20.382Z,25.37
2018-04-12T03:08:51.100Z,25.80
2018-04-12T03:11:22.125Z,26.70
2018-04-12T03:13:52.093Z,25.10
2018-04-12T03:16:22.354Z,26.30
2018-04-12T03:21:52.696Z,25.17
2018-04-12T03:24:22.645Z,23.97
2018-04-12T03:26:52.637Z,27.00
2018-04-12T03:29:23.009Z,26.27
2018-04-12T03:31:53.735Z,25.53
2018-04-12T03:34:24.443Z,26.00
2018-04-12T03:36:54.384Z,26.73
2018-04-12T03:39:25.109Z,26.43
2018-04-12T03:41:55.820Z,25.77
2018-04-12T03:44:25.737Z,28.57
2018-04-12T03:46:55.757Z,28.50
2018-04-12T03:49:25.767Z,27.07
2018-04-12T03:51:56.112Z,27.60
2018-04-12T03:54:26.856Z,27.67
2018-04-12T03:56:56.902Z,28.13
2018-04-12T03:59:26.868Z,27.47
2018-04-12T04:01:57.437Z,30.03
2018-04-12T04:04:30.842Z,28.67
2018-04-12T04:07:02.786Z,30.17
2018-04-12T04:09:32.706Z,28.53
2018-04-12T04:12:26.645Z,28.40
2018-04-12T04:15:05.498Z,28.20
2018-04-12T04:19:53.028Z,29.50
2018-04-12T04:22:23.223Z,27.57
2018-04-12T04:24:53.152Z,27.60
2018-04-12T04:27:23.429Z,27.43
2018-04-12T04:29:53.444Z,26.37
2018-04-12T04:32:25.109Z,26.97
2018-04-12T04:35:09.554Z,27.37
2018-04-12T04:37:39.783Z,28.63
2018-04-12T04:40:10.067Z,27.10
2018-04-12T04:45:45.024Z,26.70
2018-04-12T04:48:15.101Z,27.73
2018-04-12T04:50:45.137Z,28.77
2018-04-12T04:53:15.405Z,28.67
2018-04-12T04:55:52.048Z,27.13
2018-04-12T04:58:22.168Z,28.03
2018-04-12T05:00:52.358Z,28.80
2018-04-12T05:03:29.744Z,27.47
2018-04-12T05:05:59.863Z,28.40
2018-04-12T05:08:30.132Z,28.20
2018-04-12T05:11:00.176Z,27.33
2018-04-12T05:13:30.265Z,27.53
2018-04-12T05:16:00.331Z,30.80
2018-04-12T05:18:32.007Z,28.70
2018-04-12T05:21:02.052Z,26.70
2018-04-12T05:23:32.148Z,29.20
2018-04-12T05:26:02.438Z,26.90
2018-04-12T05:28:34.080Z,28.30
2018-04-12T05:31:04.909Z,26.70
2018-04-12T05:33:36.200Z,30.33
2018-04-12T05:36:06.291Z,27.33
2018-04-12T05:38:37.096Z,25.13
2018-04-12T05:41:07.186Z,25.93
2018-04-12T05:43:42.162Z,25.60
2018-04-12T05:46:12.239Z,24.90
2018-04-12T05:48:42.712Z,24.50
2018-04-12T05:51:12.989Z,23.03
2018-04-12T05:53:45.608Z,25.60
2018-04-12T05:56:15.711Z,25.30
2018-04-12T05:58:45.796Z,22.30
2018-04-12T06:01:15.863Z,23.37
2018-04-12T06:03:45.889Z,23.77
2018-04-12T06:06:16.001Z,24.30
2018-04-12T06:08:46.747Z,24.77
2018-04-12T06:11:17.618Z,24.20
2018-04-12T06:13:47.804Z,24.60
2018-04-12T06:16:18.294Z,21.50
2018-04-12T06:18:48.661Z,23.17
2018-04-12T06:21:19.626Z,21.67
2018-04-12T06:23:51.065Z,23.63
2018-04-12T06:26:22.032Z,23.00
2018-04-12T06:28:52.323Z,22.53
2018-04-12T06:31:23.154Z,20.70
2018-04-12T06:33:54.875Z,22.53
2018-04-12T06:36:25.296Z,21.87
2018-04-12T06:38:55.601Z,21.90
2018-04-12T06:41:25.983Z,23.27
2018-04-12T06:43:56.053Z,21.73
2018-04-12T06:46:26.128Z,20.70
2018-04-12T06:48:57.212Z,22.13
2018-04-12T06:51:27.340Z,21.80
2018-04-12T06:53:57.709Z,23.30
2018-04-12T06:56:27.717Z,21.93
2018-04-12T06:59:08.583Z,21.30
2018-04-12T07:01:38.864Z,21.53
2018-04-12T07:04:08.905Z,21.47
2018-04-12T07:06:39.772Z,23.30
2018-04-12T07:09:10.279Z,21.00
2018-04-12T07:11:41.149Z,21.53
2018-04-12T07:14:11.233Z,20.77
2018-04-12T07:16:41.954Z,21.07
2018-04-12T07:19:12.003Z,20.47
2018-04-12T07:21:42.090Z,22.10
2018-04-12T07:24:13.658Z,22.60
2018-04-12T07:26:44.968Z,21.93
2018-04-12T07:29:15.450Z,22.30
2018-04-12T07:31:45.888Z,22.27
2018-04-12T07:34:16.181Z,20.37
2018-04-12T07:36:47.229Z,22.30
2018-04-12T07:39:17.568Z,21.07
2018-04-12T07:41:47.609Z,21.23
2018-04-12T07:44:17.733Z,22.00
2018-04-12T07:46:48.053Z,21.57
2018-04-12T07:49:18.132Z,20.33
2018-04-12T07:51:49.060Z,21.67
2018-04-12T07:54:20.349Z,22.43
2018-04-12T07:56:50.589Z,21.90
2018-04-12T07:59:20.631Z,22.57
2018-04-12T08:01:50.784Z,20.83
2018-04-12T08:04:22.705Z,22.50
2018-04-12T08:06:52.897Z,23.30
2018-04-12T08:09:22.888Z,22.13
2018-04-12T08:11:52.955Z,21.37
2018-04-12T08:14:23.812Z,21.57
2018-04-12T08:16:53.873Z,23.07
2018-04-12T08:19:26.324Z,21.87
2018-04-12T08:21:57.107Z,21.13
2018-04-12T08:24:27.187Z,22.07
2018-04-12T08:26:57.367Z,21.53
2018-04-12T08:29:27.548Z,22.10
2018-04-12T08:31:57.804Z,20.90
2018-04-12T08:34:27.997Z,21.20
2018-04-12T08:37:00.392Z,22.83
2018-04-12T08:39:30.463Z,21.73
2018-04-12T08:42:00.483Z,21.23
2018-04-12T08:44:50.373Z,22.43
2018-04-12T08:47:20.406Z,22.50
2018-04-12T08:49:50.467Z,21.43
2018-04-12T08:52:20.806Z,22.03
2018-04-12T08:54:51.097Z,22.20
2018-04-12T08:57:21.212Z,22.87
2018-04-12T08:59:51.607Z,22.77
2018-04-12T09:02:23.249Z,22.10
2018-04-12T09:04:53.369Z,22.07
2018-04-12T09:07:23.392Z,22.03
2018-04-12T09:09:54.274Z,22.07
2018-04-12T09:12:24.304Z,23.20
2018-04-12T09:14:54.465Z,23.20
2018-04-12T09:17:24.908Z,22.00
2018-04-12T09:19:55.331Z,21.97
2018-04-12T09:22:26.952Z,21.27
2018-04-12T09:24:57.220Z,23.13
2018-04-12T09:27:28.471Z,23.10
2018-04-12T09:29:59.055Z,23.00
2018-04-12T09:32:29.243Z,21.60
2018-04-12T09:34:59.318Z,22.97
2018-04-12T09:37:29.384Z,23.77
2018-04-12T09:39:59.411Z,23.60
2018-04-12T09:42:29.876Z,24.07
2018-04-12T09:45:07.448Z,23.83
2018-04-12T09:47:38.112Z,23.53
2018-04-12T09:50:08.960Z,22.47
2018-04-12T09:52:39.783Z,23.43
2018-04-12T09:55:09.889Z,22.13
2018-04-12T09:57:39.949Z,22.57
2018-04-12T10:00:10.224Z,24.03
2018-04-12T10:02:44.657Z,24.20
2018-04-12T10:05:18.948Z,23.27
2018-04-12T10:08:03.347Z,26.07
2018-04-12T10:10:34.262Z,23.40
2018-04-12T10:13:04.915Z,24.30
2018-04-12T10:15:35.755Z,23.17
2018-04-12T10:18:06.339Z,22.87
2018-04-12T10:20:36.403Z,24.80
2018-04-12T10:23:06.673Z,23.33
2018-04-12T10:25:37.004Z,24.80
2018-04-12T10:28:07.237Z,24.80
2018-04-12T10:30:38.864Z,25.03
2018-04-12T10:33:09.008Z,25.90
2018-04-12T10:35:39.128Z,25.53
2018-04-12T10:38:09.238Z,27.17
2018-04-12T10:40:39.971Z,25.30
2018-04-12T10:43:10.148Z,24.53
2018-04-12T10:45:40.781Z,25.13
2018-04-12T10:48:10.942Z,25.50
2018-04-12T10:50:41.446Z,24.33
2018-04-12T10:53:11.982Z,26.97
2018-04-12T10:55:42.244Z,26.90
2018-04-12T10:58:13.471Z,26.40
2018-04-12T11:00:43.914Z,26.43
2018-04-12T11:03:15.286Z,24.83
2018-04-12T11:05:46.278Z,27.00
2018-04-12T11:08:16.790Z,25.23
2018-04-12T11:10:52.800Z,25.33
2018-04-12T11:13:24.179Z,26.37
2018-04-12T11:15:54.933Z,26.30
2018-04-12T11:18:26.449Z,24.87
2018-04-12T11:20:57.855Z,26.47
2018-04-12T11:23:28.360Z,26.27
2018-04-12T11:25:59.106Z,25.33
2018-04-12T11:28:29.268Z,27.63
2018-04-12T11:30:59.460Z,25.40
2018-04-12T11:33:29.628Z,29.03
2018-04-12T11:35:59.786Z,25.70
2018-04-12T11:38:31.619Z,28.70
2018-04-12T11:41:01.712Z,26.27
2018-04-12T11:43:32.005Z,25.50
2018-04-12T11:46:02.239Z,27.97
2018-04-12T11:48:33.307Z,25.20
2018-04-12T11:51:04.845Z,25.33
2018-04-12T11:53:34.891Z,27.00
2018-04-12T11:56:05.066Z,26.60
2018-04-12T11:58:35.575Z,26.80
2018-04-12T12:01:05.736Z,28.47
2018-04-12T12:03:35.992Z,26.80
2018-04-12T12:06:06.656Z,27.77
2018-04-12T12:08:38.647Z,26.60
2018-04-12T12:11:08.852Z,26.40
2018-04-12T12:13:39.192Z,26.90
2018-04-12T12:16:09.288Z,27.73
2018-04-12T12:18:43.417Z,28.40
2018-04-12T12:21:13.616Z,27.57
2018-04-12T12:23:43.728Z,28.03
2018-04-12T12:26:14.059Z,28.10
2018-04-12T12:28:44.136Z,26.07
2018-04-12T12:31:14.207Z,28.47
2018-04-12T12:33:45.344Z,27.67
2018-04-12T12:36:16.101Z,27.87
2018-04-12T12:38:46.174Z,28.73
2018-04-12T12:41:16.822Z,27.90
2018-04-12T12:43:46.874Z,28.07
2018-04-12T12:46:17.067Z,28.00
2018-04-12T12:48:48.013Z,29.60
2018-04-12T12:51:19.119Z,29.80
2018-04-12T12:53:50.651Z,29.80
2018-04-12T12:56:21.802Z,28.97
2018-04-12T12:58:54.561Z,29.53
2018-04-12T13:01:25.089Z,29.73
2018-04-12T13:03:58.104Z,29.33
2018-04-12T13:06:28.459Z,30.47
2018-04-12T13:09:00.341Z,30.77
2018-04-12T13:11:31.341Z,30.87
2018-04-12T13:14:01.440Z,30.57
2018-04-12T13:16:31.555Z,31.67
2018-04-12T13:19:01.654Z,30.90
2018-04-12T13:21:32.612Z,31.13
2018-04-12T13:24:02.841Z,33.30
2018-04-12T13:26:33.336Z,30.20
2018-04-12T13:29:04.324Z,30.90
2018-04-12T13:31:36.208Z,29.80
2018-04-12T13:34:06.389Z,32.63
2018-04-12T13:36:39.801Z,32.10
2018-04-12T13:39:10.003Z,30.73
2018-04-12T13:41:40.122Z,34.33
2018-04-12T13:44:10.985Z,33.63
2018-04-12T13:46:41.171Z,32.30
2018-04-12T13:49:12.236Z,33.20
2018-04-12T13:51:42.337Z,32.17
2018-04-12T13:54:13.275Z,30.17
2018-04-12T13:56:43.615Z,33.10
2018-04-12T13:59:14.958Z,33.57
2018-04-12T14:01:45.303Z,34.97
2018-04-12T14:04:15.412Z,34.03
2018-04-12T14:06:45.425Z,33.30
2018-04-12T14:09:15.761Z,33.87
2018-04-12T14:11:45.964Z,33.37
2018-04-12T14:14:16.991Z,33.27
2018-04-12T14:16:47.825Z,34.27
2018-04-12T14:19:18.264Z,34.43
2018-04-12T14:21:49.308Z,34.47
2018-04-12T14:24:19.720Z,34.10
2018-04-12T14:26:50.740Z,34.03
2018-04-12T14:29:21.108Z,35.70
2018-04-12T14:31:53.172Z,33.90
2018-04-12T14:34:24.867Z,35.07
2018-04-12T14:36:57.076Z,34.30
2018-04-12T14:39:29.059Z,37.50
2018-04-12T14:42:05.230Z,32.57
2018-04-12T14:44:37.883Z,33.10
2018-04-12T14:47:08.202Z,34.37
2018-04-12T14:49:38.765Z,32.97
2018-04-12T14:52:09.792Z,33.70
2018-04-12T14:54:42.344Z,33.83
2018-04-12T14:57:14.929Z,34.37
2018-04-12T14:59:46.645Z,34.40
2018-04-12T15:02:16.786Z,34.63
2018-04-12T15:04:46.887Z,34.87
2018-04-12T15:07:17.179Z,34.40
2018-04-12T15:09:47.276Z,34.90
2018-04-12T15:12:18.252Z,33.43
2018-04-12T15:14:48.638Z,32.60
2018-04-12T15:17:19.368Z,35.10
2018-04-12T15:19:49.474Z,36.43
2018-04-12T15:22:19.580Z,36.87
2018-04-12T15:24:49.636Z,34.63
2018-04-12T15:27:19.662Z,32.17
2018-04-12T15:29:49.814Z,36.57
2018-04-12T15:32:20.061Z,35.10
2018-04-12T15:34:50.482Z,34.47
2018-04-12T15:37:20.648Z,33.13
2018-04-12T15:39:50.823Z,33.00
2018-04-12T15:42:21.152Z,35.83
2018-04-12T15:44:51.361Z,34.80
2018-04-12T15:47:25.418Z,35.77
2018-04-12T15:49:56.384Z,35.73
2018-04-12T15:52:27.038Z,35.17
2018-04-12T15:54:57.537Z,32.60
2018-04-12T15:57:30.259Z,35.00
2018-04-12T16:00:00.808Z,33.30
2018-04-12T16:02:31.190Z,33.80
2018-04-12T16:05:03.780Z,35.27
2018-04-12T16:07:33.929Z,33.87
2018-04-12T16:10:04.412Z,34.70
2018-04-12T16:12:34.847Z,33.00
2018-04-12T16:15:05.114Z,35.27
2018-04-12T16:17:35.288Z,35.27
2018-04-12T16:20:06.635Z,34.17
2018-04-12T16:22:36.784Z,33.13
2018-04-12T16:25:07.124Z,35.70
2018-04-12T16:27:37.349Z,32.97
2018-04-12T16:30:07.706Z,35.47
2018-04-12T16:32:37.839Z,31.70
2018-04-12T16:35:08.346Z,34.80
2018-04-12T16:37:38.833Z,34.13
2018-04-12T16:40:09.271Z,32.90
2018-04-12T16:42:40.328Z,33.97
2018-04-12T16:45:10.649Z,34.53
2018-04-12T16:47:40.870Z,34.40
2018-04-12T16:50:11.263Z,33.00
2018-04-12T16:52:41.538Z,33.30
2018-04-12T16:55:11.762Z,32.20
2018-04-12T16:57:44.511Z,33.90
2018-04-12T17:00:15.151Z,34.10
2018-04-12T17:02:46.212Z,32.70
2018-04-12T17:05:17.091Z,33.60
2018-04-12T17:07:49.337Z,32.40
2018-04-12T17:10:20.695Z,31.67
2018-04-12T17:12:51.286Z,32.47
2018-04-12T17:15:25.572Z,31.20
2018-04-12T17:17:55.739Z,34.03
2018-04-12T17:20:28.650Z,32.37
2018-04-12T17:23:01.607Z,33.00
2018-04-12T17:25:32.433Z,32.37
2018-04-12T17:28:03.095Z,34.80
2018-04-12T17:30:40.210Z,33.10
2018-04-12T17:33:11.362Z,33.63
2018-04-12T17:35:41.562Z,31.80
2018-04-12T17:38:13.369Z,30.80
2018-04-12T17:40:43.618Z,32.13
2018-04-12T17:43:13.995Z,31.17
2018-04-12T17:45:44.617Z,31.47
2018-04-12T17:48:14.752Z,32.87
2018-04-12T17:50:44.972Z,31.17
2018-04-12T17:53:15.979Z,31.60
2018-04-12T17:55:46.111Z,31.67
2018-04-12T17:58:16.251Z,30.70
2018-04-12T18:00:48.463Z,31.57
2018-04-12T18:03:19.284Z,32.77
2018-04-12T18:05:51.930Z,29.40
2018-04-12T18:08:22.187Z,31.60
2018-04-12T18:10:53.728Z,31.10
2018-04-12T18:13:24.688Z,31.00
2018-04-12T18:15:57.099Z,27.60
2018-04-12T18:18:27.487Z,30.73
2018-04-12T18:20:57.625Z,31.33
2018-04-12T18:23:28.130Z,30.30
2018-04-12T18:25:58.390Z,28.57
2018-04-12T18:28:28.592Z,28.23
2018-04-12T18:31:05.985Z,31.27
2018-04-12T18:33:38.426Z,27.83
2018-04-12T18:36:09.696Z,29.40
2018-04-12T18:38:40.050Z,30.93
2018-04-12T18:41:10.934Z,30.97
2018-04-12T18:43:41.415Z,29.17
2018-04-12T18:46:14.734Z,30.37
2018-04-12T18:48:47.083Z,28.37
2018-04-12T18:51:18.397Z,30.77
2018-04-12T18:53:50.569Z,30.40
2018-04-12T18:56:20.778Z,29.40
2018-04-12T18:58:50.934Z,29.07
2018-04-12T19:01:21.231Z,29.43
2018-04-12T19:03:51.370Z,31.43
2018-04-12T19:06:21.702Z,29.00
2018-04-12T19:08:53.372Z,27.00
2018-04-12T19:11:25.178Z,29.23
2018-04-12T19:13:55.751Z,28.50
2018-04-12T19:16:32.414Z,27.53
2018-04-12T19:19:02.943Z,26.97
2018-04-12T19:21:33.102Z,27.60
2018-04-12T19:24:03.994Z,28.07
2018-04-12T19:26:34.285Z,26.70
2018-04-12T19:29:04.599Z,27.07
2018-04-12T19:31:35.353Z,27.63
2018-04-12T19:34:05.562Z,27.47
2018-04-12T19:36:35.844Z,26.10
2018-04-12T19:39:09.494Z,28.60
2018-04-12T19:41:40.984Z,24.60
2018-04-12T19:44:11.152Z,26.70
2018-04-12T19:46:41.891Z,27.07
2018-04-12T19:49:12.003Z,27.50
2018-04-12T19:51:42.131Z,28.27
2018-04-12T19:54:12.338Z,26.93
2018-04-12T19:56:43.244Z,26.80
2018-04-12T19:59:13.369Z,28.63
2018-04-12T20:01:43.560Z,25.83
2018-04-12T20:04:15.262Z,26.33
2018-04-12T20:06:46.242Z,26.00
2018-04-12T20:09:16.722Z,26.77
2018-04-12T20:11:47.033Z,27.73
2018-04-12T20:14:17.454Z,27.07
2018-04-12T20:16:47.647Z,27.30
2018-04-12T20:19:17.842Z,26.90
2018-04-12T20:21:48.067Z,27.43
2018-04-12T20:24:18.996Z,30.10
2018-04-12T20:26:50.816Z,33.63
2018-04-12T20:29:20.953Z,31.13
2018-04-12T20:31:51.015Z,31.70
2018-04-12T20:34:21.904Z,32.00
2018-04-12T20:36:52.229Z,30.93
2018-04-12T20:39:22.467Z,27.97
2018-04-12T20:41:52.889Z,28.40
2018-04-12T20:44:23.029Z,28.87
2018-04-12T20:46:54.172Z,26.10
2018-04-12T20:49:24.869Z,28.30
2018-04-12T20:51:55.098Z,27.87
2018-04-12T20:54:25.407Z,27.13
2018-04-12T20:56:55.697Z,28.17
2018-04-12T20:59:27.235Z,25.53
2018-04-12T21:01:57.426Z,27.40
2018-04-12T21:04:27.559Z,27.20
2018-04-12T21:06:58.499Z,27.30
2018-04-12T21:09:29.447Z,28.97
2018-04-12T21:11:59.730Z,32.10
2018-04-12T21:14:29.853Z,29.60
2018-04-12T21:17:00.522Z,27.90
2018-04-12T21:19:32.110Z,26.90
2018-04-12T21:22:02.251Z,26.83
2018-04-12T21:24:32.454Z,28.10
2018-04-12T21:27:03.348Z,26.10
2018-04-12T21:29:37.561Z,25.70
2018-04-12T21:32:09.193Z,26.17
2018-04-12T21:34:39.487Z,26.47
2018-04-12T21:37:09.787Z,28.13
2018-04-12T21:39:40.960Z,29.40
2018-04-12T21:42:11.151Z,30.13
2018-04-12T21:44:42.082Z,30.57
2018-04-12T21:47:12.207Z,29.00
2018-04-12T21:49:42.384Z,29.50
2018-04-12T21:52:13.293Z,27.97
2018-04-12T21:54:44.871Z,28.00
2018-04-12T21:57:15.142Z,28.50
2018-04-12T21:59:45.589Z,28.70
2018-04-12T22:02:16.159Z,28.93
2018-04-12T22:04:48.969Z,28.93
2018-04-12T22:07:19.307Z,28.50
2018-04-12T22:09:50.348Z,27.03
2018-04-12T22:12:21.549Z,25.27
2018-04-12T22:14:51.944Z,26.77
2018-04-12T22:17:23.081Z,26.07
2018-04-12T22:19:53.405Z,29.03
2018-04-12T22:22:24.667Z,26.53
2018-04-12T22:24:55.086Z,27.70
2018-04-12T22:27:25.588Z,30.23
2018-04-12T22:29:55.691Z,28.13
2018-04-12T22:32:25.823Z,30.10
2018-04-12T22:34:56.009Z,32.10
2018-04-12T22:37:27.662Z,29.60
2018-04-12T22:39:57.891Z,30.47
2018-04-12T22:42:28.144Z,31.30
2018-04-12T22:44:58.514Z,31.50
2018-04-12T22:47:30.783Z,31.20
2018-04-12T22:50:00.974Z,29.73
2018-04-12T22:52:31.933Z,31.80
2018-04-12T22:55:02.377Z,29.57
2018-04-12T22:57:32.726Z,30.67
2018-04-12T23:00:02.851Z,32.27
2018-04-12T23:02:36.166Z,31.57
2018-04-12T23:05:06.358Z,33.27
2018-04-12T23:07:36.942Z,29.80
2018-04-12T23:10:07.855Z,30.20
2018-04-12T23:12:38.655Z,30.90
2018-04-12T23:15:09.014Z,30.67
2018-04-12T23:17:43.320Z,28.97
2018-04-12T23:20:13.685Z,32.40
2018-04-12T23:22:44.588Z,30.93
2018-04-12T23:25:14.761Z,33.97
2018-04-12T23:27:44.950Z,36.10
2018-04-12T23:30:15.094Z,34.87
2018-04-12T23:32:45.220Z,36.87
2018-04-12T23:35:16.884Z,34.97
2018-04-12T23:37:47.069Z,34.20
2018-04-12T23:40:17.220Z,34.17
2018-04-12T23:42:47.421Z,33.50
2018-04-12T23:45:17.862Z,34.00
2018-04-12T23:47:48.643Z,35.20
2018-04-12T23:50:18.809Z,35.70
2018-04-12T23:52:49.090Z,32.60
2018-04-12T23:55:19.309Z,35.10
2018-04-12T23:57:52.606Z,33.80
